createdAt,value
2022-08-25T00:01:52.591Z,98735.53
2022-08-25T00:04:19.521Z,98723.09
2022-08-25T00:06:56.493Z,98723.50
2022-08-25T00:09:27.637Z,98724.72
2022-08-25T00:12:00.585Z,98727.59
2022-08-25T00:14:30.192Z,98718.91
2022-08-25T00:17:03.579Z,98723.03
2022-08-25T00:19:32.200Z,98723.03
2022-08-25T00:22:05.591Z,98726.75
2022-08-25T00:24:32.214Z,98726.34
2022-08-25T00:27:05.595Z,98721.78
2022-08-25T00:29:39.575Z,98720.31
2022-08-25T00:32:19.814Z,98721.97
2022-08-25T00:34:46.576Z,98719.28
2022-08-25T00:37:19.586Z,98717.66
2022-08-25T00:39:46.603Z,98723.19
2022-08-25T00:42:20.571Z,98726.28
2022-08-25T00:44:47.735Z,98721.59
2022-08-25T00:47:20.586Z,98718.03
2022-08-25T00:49:59.762Z,98713.28
2022-08-25T00:52:38.578Z,98722.88
2022-08-25T00:55:08.242Z,98713.34
2022-08-25T00:57:46.570Z,98718.03
2022-08-25T01:00:19.668Z,98718.47
2022-08-25T01:02:52.679Z,98716.78
2022-08-25T01:05:26.573Z,98722.75
2022-08-25T01:07:53.159Z,98721.31
2022-08-25T01:10:32.587Z,98720.69
2022-08-25T01:13:16.541Z,98728.06
2022-08-25T01:15:44.340Z,98725.63
2022-08-25T01:18:18.583Z,98725.41
2022-08-25T01:20:48.925Z,98726.44
2022-08-25T01:23:21.576Z,98719.19
2022-08-25T01:25:48.088Z,98717.13
2022-08-25T01:28:21.574Z,98724.38
2022-08-25T01:31:01.634Z,98720.88
2022-08-25T01:33:35.281Z,98729.13
2022-08-25T01:36:09.579Z,98725.00
2022-08-25T01:38:36.316Z,98722.56
2022-08-25T01:41:09.563Z,98720.06
2022-08-25T01:43:37.569Z,98711.81
2022-08-25T01:46:04.465Z,98711.03
2022-08-25T01:48:39.571Z,98703.59
2022-08-25T01:51:06.263Z,98701.91
2022-08-25T01:53:33.478Z,98696.97
2022-08-25T01:56:11.598Z,98698.22
2022-08-25T01:58:39.913Z,98696.16
2022-08-25T02:01:14.592Z,98693.91
2022-08-25T02:03:42.533Z,98690.41
2022-08-25T02:06:17.578Z,98695.53
2022-08-25T02:08:44.542Z,98691.38
2022-08-25T02:11:12.901Z,98699.88
2022-08-25T02:13:46.537Z,98694.91
2022-08-25T02:16:29.691Z,98693.47
2022-08-25T02:19:10.554Z,98692.41
2022-08-25T02:21:37.119Z,98690.28
2022-08-25T02:24:10.568Z,98679.94
2022-08-25T02:26:37.575Z,98686.13
2022-08-25T02:29:11.580Z,98678.72
2022-08-25T02:31:45.662Z,98687.78
2022-08-25T02:34:18.568Z,98689.63
2022-08-25T02:36:51.574Z,98685.66
2022-08-25T02:39:18.073Z,98680.31
2022-08-25T02:41:51.578Z,98678.63
2022-08-25T02:44:18.143Z,98682.75
2022-08-25T02:46:51.572Z,98679.00
2022-08-25T02:49:25.564Z,98681.06
2022-08-25T02:51:52.298Z,98679.34
2022-08-25T02:54:25.578Z,98678.09
2022-08-25T02:56:52.229Z,98685.97
2022-08-25T02:59:25.582Z,98677.09
2022-08-25T03:01:58.561Z,98685.34
2022-08-25T03:04:25.256Z,98676.66
2022-08-25T03:06:58.560Z,98683.66
2022-08-25T03:09:26.447Z,98686.75
2022-08-25T03:11:59.558Z,98686.31
2022-08-25T03:14:33.566Z,98687.50
2022-08-25T03:17:00.430Z,98691.63
2022-08-25T03:19:33.556Z,98689.56
2022-08-25T03:22:00.117Z,98701.16
2022-08-25T03:24:33.561Z,98687.44
2022-08-25T03:27:00.241Z,98694.53
2022-08-25T03:29:34.564Z,98687.28
2022-08-25T03:32:14.525Z,98687.28
2022-08-25T03:34:41.050Z,98687.09
2022-08-25T03:37:14.537Z,98683.44
2022-08-25T03:39:41.112Z,98681.84
2022-08-25T03:42:14.564Z,98672.16
2022-08-25T03:44:41.138Z,98678.91
2022-08-25T03:47:14.562Z,98679.78
2022-08-25T03:49:41.222Z,98688.84
2022-08-25T03:52:14.653Z,98687.19
2022-08-25T03:54:41.609Z,98689.47
2022-08-25T03:57:16.536Z,98683.66
2022-08-25T03:59:49.555Z,98683.47
2022-08-25T04:02:22.640Z,98688.47
2022-08-25T04:04:50.301Z,98678.69
2022-08-25T04:07:23.538Z,98697.00
2022-08-25T04:09:56.653Z,98711.44
2022-08-25T04:12:23.431Z,98695.78
2022-08-25T04:14:50.094Z,98692.31
2022-08-25T04:17:23.520Z,98689.28
2022-08-25T04:19:50.736Z,98683.28
2022-08-25T04:22:24.641Z,98689.28
2022-08-25T04:24:51.223Z,98690.28
2022-08-25T04:27:17.735Z,98690.97
2022-08-25T04:29:50.538Z,98687.94
2022-08-25T04:32:23.667Z,98683.88
2022-08-25T04:34:56.539Z,98685.50
2022-08-25T04:37:23.162Z,98705.94
2022-08-25T04:39:56.619Z,98703.63
2022-08-25T04:42:29.533Z,98709.63
2022-08-25T04:44:56.089Z,98691.03
2022-08-25T04:47:29.556Z,98677.75
2022-08-25T04:50:02.512Z,98687.59
2022-08-25T04:52:29.259Z,98695.88
2022-08-25T04:55:03.541Z,98699.00
2022-08-25T04:57:36.544Z,98693.41
2022-08-25T05:00:04.684Z,98690.59
2022-08-25T05:02:37.528Z,98690.53
2022-08-25T05:05:10.582Z,98675.38
2022-08-25T05:07:37.224Z,98671.63
2022-08-25T05:10:10.561Z,98672.88
2022-08-25T05:12:43.537Z,98674.50
2022-08-25T05:15:29.463Z,98665.56
2022-08-25T05:18:03.539Z,98678.47
2022-08-25T05:20:31.197Z,98668.59
2022-08-25T05:23:04.547Z,98676.88
2022-08-25T05:25:32.702Z,98678.31
2022-08-25T05:28:05.692Z,98670.44
2022-08-25T05:30:38.546Z,98668.97
2022-08-25T05:33:13.401Z,98671.88
2022-08-25T05:35:46.522Z,98673.97
2022-08-25T05:38:19.747Z,98674.19
2022-08-25T05:40:52.530Z,98671.34
2022-08-25T05:43:19.080Z,98666.84
2022-08-25T05:45:53.593Z,98680.47
2022-08-25T05:48:20.136Z,98674.28
2022-08-25T05:51:00.559Z,98670.94
2022-08-25T05:53:28.440Z,98685.84
2022-08-25T05:56:04.547Z,98672.22
2022-08-25T05:58:38.540Z,98666.41
2022-08-25T06:01:30.573Z,98681.47
2022-08-25T06:03:57.189Z,98688.34
2022-08-25T06:06:24.508Z,98674.91
2022-08-25T06:08:58.553Z,98669.28
2022-08-25T06:15:04.601Z,98677.31
2022-08-25T06:17:37.536Z,98672.16
2022-08-25T06:20:05.767Z,98664.09
2022-08-25T06:22:40.558Z,98672.00
2022-08-25T06:25:14.615Z,98667.28
2022-08-25T06:27:41.145Z,98665.84
2022-08-25T06:30:24.536Z,98663.72
2022-08-25T06:33:08.528Z,98669.34
2022-08-25T06:35:41.535Z,98665.06
2022-08-25T06:38:08.108Z,98656.22
2022-08-25T06:40:41.680Z,98659.97
2022-08-25T06:43:08.981Z,98657.06
2022-08-25T06:45:35.589Z,98656.88
2022-08-25T06:48:08.545Z,98653.16
2022-08-25T06:50:35.128Z,98660.44
2022-08-25T06:53:08.525Z,98651.75
2022-08-25T06:55:35.457Z,98660.44
2022-08-25T06:58:10.529Z,98656.31
2022-08-25T07:00:37.979Z,98664.16
2022-08-25T07:03:11.563Z,98664.19
2022-08-25T07:05:44.521Z,98660.66
2022-08-25T07:08:18.540Z,98657.97
2022-08-25T07:10:48.140Z,98660.25
2022-08-25T07:13:21.542Z,98659.81
2022-08-25T07:16:00.718Z,98662.13
2022-08-25T07:18:27.496Z,98661.28
2022-08-25T07:21:01.607Z,98655.31
2022-08-25T07:23:28.271Z,98656.13
2022-08-25T07:26:11.815Z,98652.81
2022-08-25T07:28:55.580Z,98645.97
2022-08-25T07:31:42.585Z,98647.84
2022-08-25T07:34:34.674Z,98649.31
2022-08-25T07:37:10.539Z,98651.81
2022-08-25T07:39:43.543Z,98650.75
2022-08-25T07:42:19.780Z,98638.50
2022-08-25T07:44:47.426Z,98642.44
2022-08-25T07:47:23.088Z,98638.31
2022-08-25T07:49:56.540Z,98643.91
2022-08-25T07:52:23.215Z,98634.16
2022-08-25T07:54:56.625Z,98636.84
2022-08-25T07:57:26.321Z,98645.34
2022-08-25T07:59:59.538Z,98642.25
2022-08-25T08:02:26.619Z,98637.22
2022-08-25T08:05:00.503Z,98638.50
2022-08-25T08:07:43.427Z,98648.41
2022-08-25T08:10:53.801Z,98646.53
2022-08-25T08:13:07.350Z,98652.09
2022-08-25T08:15:41.620Z,98644.63
2022-08-25T08:18:11.859Z,98648.28
2022-08-25T08:20:45.606Z,98641.03
2022-08-25T08:23:12.317Z,98638.69
2022-08-25T08:25:45.641Z,98631.25
2022-08-25T08:28:12.575Z,98630.00
2022-08-25T08:30:53.593Z,98622.03
2022-08-25T08:33:33.629Z,98624.09
2022-08-25T08:36:15.564Z,98627.00
2022-08-25T08:38:50.680Z,98630.78
2022-08-25T08:42:11.106Z,98631.31
2022-08-25T08:44:45.688Z,98629.63
2022-08-25T08:47:28.706Z,98645.34
2022-08-25T08:50:06.878Z,98643.44
2022-08-25T08:52:58.665Z,98636.72
2022-08-25T08:55:31.178Z,98609.25
2022-08-25T08:58:06.675Z,98614.78
2022-08-25T09:00:51.920Z,98616.16
2022-08-25T09:03:25.556Z,98608.16
2022-08-25T09:06:01.533Z,98609.13
2022-08-25T09:08:30.685Z,98608.25
2022-08-25T09:11:10.126Z,98609.84
2022-08-25T09:13:37.121Z,98610.44
2022-08-25T09:16:35.617Z,98600.38
2022-08-25T09:19:12.874Z,98602.41
2022-08-25T09:21:51.222Z,98594.53
2022-08-25T09:24:29.527Z,98597.63
2022-08-25T09:27:11.416Z,98588.44
2022-08-25T09:29:59.514Z,98586.94
2022-08-25T09:32:34.917Z,98586.50
2022-08-25T09:35:21.684Z,98591.44
2022-08-25T09:38:17.707Z,98587.00
2022-08-25T09:40:52.508Z,98578.06
2022-08-25T09:43:37.223Z,98575.19
2022-08-25T09:46:20.827Z,98569.44
2022-08-25T09:49:10.847Z,98557.03
2022-08-25T09:51:48.523Z,98554.59
2022-08-25T09:54:25.471Z,98558.13
2022-08-25T09:57:00.519Z,98562.25
2022-08-25T09:59:36.439Z,98567.78
2022-08-25T10:02:15.073Z,98554.47
2022-08-25T10:04:44.872Z,98558.25
2022-08-25T10:07:52.004Z,98546.38
2022-08-25T10:10:24.572Z,98547.81
2022-08-25T10:12:57.533Z,98547.91
2022-08-25T10:15:29.877Z,98542.19
2022-08-25T10:18:23.502Z,98540.00
2022-08-25T10:21:11.308Z,98546.84
2022-08-25T10:24:05.519Z,98532.28
2022-08-25T10:26:41.416Z,98528.41
2022-08-25T10:29:33.519Z,98531.09
2022-08-25T10:32:18.491Z,98526.22
2022-08-25T10:34:56.061Z,98513.88
2022-08-25T10:37:35.539Z,98530.22
2022-08-25T10:40:21.950Z,98537.56
2022-08-25T10:43:04.745Z,98543.44
2022-08-25T10:45:45.218Z,98531.78
2022-08-25T10:48:37.511Z,98536.16
2022-08-25T10:51:22.541Z,98521.88
2022-08-25T10:53:59.496Z,98511.59
2022-08-25T10:56:41.749Z,98498.63
2022-08-25T10:59:17.512Z,98506.66
2022-08-25T11:01:56.532Z,98498.88
2022-08-25T11:04:34.495Z,98499.06
2022-08-25T11:07:11.939Z,98493.63
2022-08-25T11:09:47.479Z,98475.91
2022-08-25T11:12:36.170Z,98487.63
2022-08-25T11:15:31.236Z,98477.53
2022-08-25T11:18:00.963Z,98462.41
2022-08-25T11:20:40.491Z,98469.03
2022-08-25T11:23:11.551Z,98451.75
2022-08-25T11:25:52.480Z,98454.28
2022-08-25T11:28:35.523Z,98455.19
2022-08-25T11:31:09.851Z,98451.47
2022-08-25T11:33:39.373Z,98447.03
2022-08-25T11:36:33.487Z,98440.03
2022-08-25T11:39:22.474Z,98437.91
2022-08-25T11:42:12.448Z,98439.81
2022-08-25T11:44:53.169Z,98444.41
2022-08-25T11:47:42.603Z,98431.41
2022-08-25T11:50:35.497Z,98439.13
2022-08-25T11:53:18.243Z,98437.41
2022-08-25T11:55:58.519Z,98441.06
2022-08-25T11:58:34.490Z,98423.78
2022-08-25T12:01:02.849Z,98420.75
2022-08-25T12:03:38.484Z,98423.03
2022-08-25T12:06:20.090Z,98412.34
2022-08-25T12:08:57.698Z,98411.25
2022-08-25T12:11:43.136Z,98409.81
2022-08-25T12:14:28.633Z,98406.28
2022-08-25T12:16:55.382Z,98399.69
2022-08-25T12:19:40.475Z,98398.31
2022-08-25T12:22:08.828Z,98395.13
2022-08-25T12:24:51.479Z,98392.25
2022-08-25T12:27:40.160Z,98390.63
2022-08-25T12:30:24.475Z,98387.78
2022-08-25T12:33:14.778Z,98384.31
2022-08-25T12:36:08.487Z,98386.06
2022-08-25T12:38:56.478Z,98393.84
2022-08-25T12:41:24.532Z,98395.28
2022-08-25T12:43:59.475Z,98397.94
2022-08-25T12:46:37.642Z,98391.25
2022-08-25T12:49:30.483Z,98385.19
2022-08-25T12:52:04.858Z,98389.94
2022-08-25T12:54:58.654Z,98385.03
2022-08-25T12:57:40.735Z,98381.13
2022-08-25T13:00:30.494Z,98373.72
2022-08-25T13:03:29.540Z,98378.19
2022-08-25T13:06:02.508Z,98379.31
2022-08-25T13:08:46.808Z,98378.19
2022-08-25T13:11:25.522Z,98365.50
2022-08-25T13:14:05.406Z,98370.16
2022-08-25T13:16:40.479Z,98368.78
2022-08-25T13:19:07.387Z,98360.13
2022-08-25T13:21:42.470Z,98352.38
2022-08-25T13:24:12.540Z,98349.97
2022-08-25T13:26:48.459Z,98338.78
2022-08-25T13:29:29.655Z,98328.13
2022-08-25T13:32:12.860Z,98328.00
2022-08-25T13:34:54.500Z,98315.16
2022-08-25T13:37:36.476Z,98317.34
2022-08-25T13:40:18.728Z,98299.06
2022-08-25T13:42:57.568Z,98306.19
2022-08-25T13:45:40.248Z,98304.53
2022-08-25T13:48:22.619Z,98307.53
2022-08-25T13:50:58.536Z,98300.97
2022-08-25T13:53:32.494Z,98299.00
2022-08-25T13:56:07.621Z,98298.41
2022-08-25T13:58:44.380Z,98303.53
2022-08-25T14:01:48.704Z,98300.75
2022-08-25T14:04:21.420Z,98298.03
2022-08-25T14:06:55.550Z,98288.06
2022-08-25T14:09:28.145Z,98292.09
2022-08-25T14:12:03.561Z,98284.09
2022-08-25T14:14:32.658Z,98284.34
2022-08-25T14:17:04.961Z,98282.13
2022-08-25T14:19:52.522Z,98282.06
2022-08-25T14:22:25.706Z,98280.44
2022-08-25T14:24:53.550Z,98276.66
2022-08-25T14:27:27.520Z,98270.16
2022-08-25T14:30:00.598Z,98274.47
2022-08-25T14:32:33.921Z,98277.50
2022-08-25T14:35:13.517Z,98277.19
2022-08-25T14:37:45.158Z,98274.59
2022-08-25T14:40:28.913Z,98271.31
2022-08-25T14:43:06.743Z,98268.59
2022-08-25T14:45:38.075Z,98262.59
2022-08-25T14:48:14.458Z,98264.72
2022-08-25T14:50:48.553Z,98259.75
2022-08-25T14:53:17.403Z,98260.34
2022-08-25T14:55:44.411Z,98250.25
2022-08-25T14:58:17.526Z,98254.88
2022-08-25T15:00:53.008Z,98248.00
2022-08-25T15:03:34.527Z,98242.41
2022-08-25T15:06:02.414Z,98245.38
2022-08-25T15:08:56.529Z,98245.38
2022-08-25T15:11:23.345Z,98256.03
2022-08-25T15:13:56.482Z,98253.56
2022-08-25T15:16:33.884Z,98251.38
2022-08-25T15:19:09.576Z,98255.72
2022-08-25T15:21:37.064Z,98251.03
2022-08-25T15:24:05.233Z,98252.38
2022-08-25T15:26:39.604Z,98246.91
2022-08-25T15:29:06.605Z,98247.41
2022-08-25T15:31:39.556Z,98241.44
2022-08-25T15:34:14.130Z,98244.41
2022-08-25T15:36:50.869Z,98244.50
2022-08-25T15:39:18.950Z,98243.44
2022-08-25T15:41:55.500Z,98239.94
2022-08-25T15:44:28.997Z,98235.69
2022-08-25T15:47:02.549Z,98237.91
2022-08-25T15:49:29.819Z,98235.75
2022-08-25T15:55:46.009Z,98233.00
2022-08-25T15:58:20.460Z,98233.25
2022-08-25T16:00:56.262Z,98245.50
2022-08-25T16:03:29.471Z,98235.84
2022-08-25T16:05:56.096Z,98246.44
2022-08-25T16:08:29.476Z,98244.75
2022-08-25T16:11:03.484Z,98252.31
2022-08-25T16:13:36.461Z,98254.16
2022-08-25T16:16:09.589Z,98248.06
2022-08-25T16:18:42.457Z,98247.16
2022-08-25T16:21:12.418Z,98240.81
2022-08-25T16:23:46.484Z,98238.84
2022-08-25T16:26:15.899Z,98239.59
2022-08-25T16:28:51.493Z,98240.84
2022-08-25T16:31:18.723Z,98236.91
2022-08-25T16:33:58.564Z,98235.25
2022-08-25T16:36:32.799Z,98240.34
2022-08-25T16:39:09.947Z,98242.94
2022-08-25T16:41:37.389Z,98241.75
2022-08-25T16:44:15.459Z,98242.47
2022-08-25T16:46:44.377Z,98236.94
2022-08-25T16:49:19.473Z,98230.41
2022-08-25T16:51:47.766Z,98238.72
2022-08-25T16:54:46.485Z,98242.94
2022-08-25T16:57:20.446Z,98251.84
2022-08-25T16:59:53.501Z,98246.88
2022-08-25T17:02:21.767Z,98260.38
2022-08-25T17:04:54.502Z,98262.44
2022-08-25T17:07:23.815Z,98270.53
2022-08-25T17:09:57.454Z,98272.09
2022-08-25T17:12:27.180Z,98267.91
2022-08-25T17:18:32.972Z,98272.06
2022-08-25T17:21:07.562Z,98271.16
2022-08-25T17:23:35.235Z,98268.34
2022-08-25T17:26:14.205Z,98278.06
2022-08-25T17:28:41.968Z,98283.97
2022-08-25T17:31:15.498Z,98276.81
2022-08-25T17:33:48.864Z,98278.38
2022-08-25T17:36:27.231Z,98275.00
2022-08-25T17:39:01.483Z,98278.25
2022-08-25T17:41:28.137Z,98285.81
2022-08-25T17:44:01.447Z,98289.22
2022-08-25T17:46:35.594Z,98287.84
2022-08-25T17:49:08.470Z,98292.34
2022-08-25T17:51:35.086Z,98294.72
2022-08-25T17:54:08.492Z,98289.22
2022-08-25T17:56:36.332Z,98294.06
2022-08-25T17:59:09.503Z,98298.56
2022-08-25T18:01:45.545Z,98310.16
2022-08-25T18:04:16.951Z,98311.91
2022-08-25T18:06:50.473Z,98319.13
2022-08-25T18:09:17.831Z,98316.56
2022-08-25T18:11:51.471Z,98315.66
2022-08-25T18:14:21.220Z,98319.06
2022-08-25T18:17:01.164Z,98321.94
2022-08-25T18:19:27.905Z,98329.13
2022-08-25T18:21:54.537Z,98335.25
2022-08-25T18:24:27.586Z,98340.59
2022-08-25T18:26:54.197Z,98335.06
2022-08-25T18:29:27.451Z,98336.59
2022-08-25T18:32:01.513Z,98340.84
2022-08-25T18:34:37.630Z,98336.94
2022-08-25T18:37:29.472Z,98341.47
2022-08-25T18:40:21.567Z,98347.81
2022-08-25T18:42:48.841Z,98343.66
2022-08-25T18:45:22.464Z,98333.06
2022-08-25T18:48:03.530Z,98346.03
2022-08-25T18:50:33.716Z,98346.75
2022-08-25T18:53:01.914Z,98353.44
2022-08-25T18:55:35.450Z,98345.81
2022-08-25T18:58:03.228Z,98343.31
2022-08-25T19:00:30.696Z,98355.69
2022-08-25T19:03:05.504Z,98353.66
2022-08-25T19:05:34.355Z,98354.97
2022-08-25T19:08:08.538Z,98366.03
2022-08-25T19:10:42.636Z,98365.66
2022-08-25T19:13:09.684Z,98357.81
2022-08-25T19:15:44.492Z,98366.97
2022-08-25T19:18:12.785Z,98363.31
2022-08-25T19:20:46.497Z,98364.34
2022-08-25T19:23:13.349Z,98370.03
2022-08-25T19:25:47.451Z,98365.44
2022-08-25T19:28:20.466Z,98356.25
2022-08-25T19:30:53.528Z,98370.03
2022-08-25T19:33:31.377Z,98368.84
2022-08-25T19:36:17.483Z,98363.66
2022-08-25T19:38:44.506Z,98367.66
2022-08-25T19:41:18.451Z,98357.66
2022-08-25T19:43:55.072Z,98372.25
2022-08-25T19:46:33.336Z,98365.19
2022-08-25T19:49:08.153Z,98371.88
2022-08-25T19:51:47.436Z,98375.44
2022-08-25T19:54:20.483Z,98364.00
2022-08-25T19:56:55.584Z,98377.28
2022-08-25T19:59:42.592Z,98368.34
2022-08-25T20:02:24.511Z,98364.00
2022-08-25T20:04:59.458Z,98363.19
2022-08-25T20:07:34.445Z,98371.88
2022-08-25T20:10:02.208Z,98364.25
2022-08-25T20:12:35.438Z,98371.50
2022-08-25T20:15:02.357Z,98367.75
2022-08-25T20:17:35.450Z,98364.47
2022-08-25T20:20:04.708Z,98366.59
2022-08-25T20:22:32.791Z,98366.59
2022-08-25T20:25:13.375Z,98370.34
2022-08-25T20:27:42.265Z,98367.84
2022-08-25T20:30:21.607Z,98366.69
2022-08-25T20:32:56.710Z,98358.19
2022-08-25T20:35:36.446Z,98363.03
2022-08-25T20:38:10.644Z,98357.03
2022-08-25T20:40:46.438Z,98358.91
2022-08-25T20:43:22.455Z,98361.81
2022-08-25T20:45:49.334Z,98367.22
2022-08-25T20:48:16.404Z,98370.16
2022-08-25T20:50:57.220Z,98363.69
2022-08-25T20:53:25.064Z,98354.41
2022-08-25T20:55:58.450Z,98344.41
2022-08-25T20:58:25.173Z,98345.44
2022-08-25T21:00:59.473Z,98339.94
2022-08-25T21:03:32.420Z,98347.47
2022-08-25T21:06:06.425Z,98350.38
2022-08-25T21:08:39.424Z,98345.19
2022-08-25T21:11:15.097Z,98342.94
2022-08-25T21:13:48.451Z,98351.53
2022-08-25T21:16:17.933Z,98344.94
2022-08-25T21:18:52.420Z,98356.78
2022-08-25T21:21:25.447Z,98354.31
2022-08-25T21:23:52.468Z,98356.06
2022-08-25T21:26:30.440Z,98357.13
2022-08-25T21:28:59.008Z,98354.44
2022-08-25T21:31:33.413Z,98355.94
2022-08-25T21:34:06.896Z,98355.44
2022-08-25T21:36:41.448Z,98362.50
2022-08-25T21:39:08.473Z,98360.69
2022-08-25T21:41:35.678Z,98355.06
2022-08-25T21:44:10.422Z,98360.94
2022-08-25T21:46:37.375Z,98357.63
2022-08-25T21:49:11.421Z,98360.19
2022-08-25T21:51:59.298Z,98363.09
2022-08-25T21:54:26.795Z,98353.59
2022-08-25T21:57:12.428Z,98349.22
2022-08-25T21:59:41.047Z,98349.72
2022-08-25T22:02:19.317Z,98355.31
2022-08-25T22:04:59.415Z,98358.25
2022-08-25T22:07:26.750Z,98353.44
2022-08-25T22:10:00.476Z,98352.41
2022-08-25T22:12:33.425Z,98358.25
2022-08-25T22:15:06.504Z,98344.97
2022-08-25T22:17:33.514Z,98342.50
2022-08-25T22:20:00.800Z,98356.47
2022-08-25T22:22:33.396Z,98347.44
2022-08-25T22:25:06.437Z,98347.69
2022-08-25T22:27:34.808Z,98355.41
2022-08-25T22:30:01.352Z,98357.03
2022-08-25T22:32:35.423Z,98346.84
2022-08-25T22:35:15.425Z,98342.34
2022-08-25T22:37:46.989Z,98345.47
2022-08-25T22:40:13.879Z,98343.84
2022-08-25T22:42:49.407Z,98334.69
2022-08-25T22:45:23.426Z,98328.69
2022-08-25T22:47:52.231Z,98326.69
2022-08-25T22:50:26.409Z,98325.91
2022-08-25T22:52:53.080Z,98325.47
2022-08-25T22:55:28.109Z,98323.22
2022-08-25T22:57:54.933Z,98323.09
2022-08-25T23:00:28.429Z,98319.75
2022-08-25T23:02:55.155Z,98319.41
2022-08-25T23:05:23.026Z,98323.16
2022-08-25T23:07:57.428Z,98312.13
2022-08-25T23:10:25.540Z,98316.09
2022-08-25T23:12:59.426Z,98322.56
2022-08-25T23:15:26.024Z,98321.25
2022-08-25T23:17:59.429Z,98317.75
2022-08-25T23:20:45.726Z,98310.94
2022-08-25T23:23:19.410Z,98305.06
2022-08-25T23:25:45.966Z,98316.59
2022-08-25T23:28:19.432Z,98311.75
2022-08-25T23:30:54.537Z,98306.81
2022-08-25T23:33:37.436Z,98316.22
2022-08-25T23:36:13.486Z,98305.81
2022-08-25T23:38:51.656Z,98305.44
2022-08-25T23:41:20.635Z,98306.28
2022-08-25T23:43:54.422Z,98302.53
2022-08-25T23:46:22.742Z,98307.09
2022-08-25T23:48:57.418Z,98299.44
2022-08-25T23:51:27.580Z,98306.72
2022-08-25T23:54:02.399Z,98306.03
2022-08-25T23:56:29.039Z,98302.31
2022-08-25T23:59:03.459Z,98308.81
